Pagina principale
METAR-TAF:

METAR-TAF

Aeroporti :

Aeroporto di Stoccolma-Arlanda

Stoccolma-Arlanda, Svezia

latitudine: 59-39N, longitudine: 017-57E, altezza: 38 m

Osservazione

Il bollettino è stato emesso 32 minuti fa, alle 00:20 UTC
Vento 1 kt da sud-est
Temperature -6°C
Umidità 93%
Pressione 1013 hPa
Visibilità 10 km o più
Nuvoloso ad un'altezza di 3200 ft
banchi di nebbia

METAR: ESSA 240020Z 14001KT 9999 BCFG BKN032 M06/M07 Q1013 R01L/71//63 R08/71//65 R01R/72//72 TEMPO 2000 BKN005

Ora: 01:52 (00:52 UTC)

Previsione

Il bollettino è stato emesso 1 ora e 22 minuti fa, alle 23:30 UTC
Previsione valida dal 24 alle 00 UTC al 24 alle 24 UTC
Vento 2 kt da direzioni variabili
Visibilità 10 km o più
Poco nuvoloso ad un'altezza di 200 ft
Nuvoloso ad un'altezza di 3500 ft
Probabilità 40%
dal 24 alle 00 UTC al 24 alle 06 UTC
Visibilità: 0200 m
ad un'altezza di 200 ft
nebbia che ghiaccia

TAF: ESSA 232330Z 2400/2424 VRB02KT 9999 FEW002 BKN035 PROB40 2400/2406 0200 FZFG VV002

Osservazioni e previsioni meteorologiche di più di 4000 aeroporti (messaggi METAR e TAF).

Le stazioni disponibili sono rappresentate dai dischi gialli e rossi sulla carta.

Puntare il mouse per vedere il nome della stazione.

Clicca sopra per visualizzare le osservazioni e previsioni meteorologiche.

Per cambiare la mappa : fare clic sui pulsanti verdi con una croce nera per ingrandire, il pulsante verde con un trattino per diminuire, o sulla freccia verde per le mappe adiacenti.


METAR-TAF: